EGPF/GLA METAR and TAF weather

Enter ICAO airport designator
Station Type Date Time Source
EGPF METAR 2024/05/28 22:50 UTC NOAA

EGPF 282250Z AUTO 24005KT 9999 -RA BKN036/// //////TCU 12/11 Q1003


Station Type Date Time Source
EGPF Decoded METAR 2024/05/28 22:50 UTC NOAA

Glasgow Airport, United Kingdom (EGPF) 55-52N 004-26W 0M
May 28, 2024 - 06:50 PM EDT / 2024.05.28 2250 UTC
Wind: from the WSW (240 degrees) at 6 MPH (5 KT):0
Visibility: greater than 7 mile(s):0
Sky conditions: mostly cloudy
Weather: light rain; Towering cumulus clouds observed
Temperature: 53 F (12 C)
Dew Point: 51 F (11 C)
Relative Humidity: 93%
Pressure (altimeter): 29.62 in. Hg (1003 hPa)
ob: EGPF 282250Z AUTO 24005KT 9999 -RA BKN036/// //////TCU 12/11 Q1003
cycle: 23

Station Type Date Time Source
EGPF TAF 2024/05/28 18:09 UTC NOAA